sensor_id;sensor_type;location;lat;lon;timestamp;P1;durP1;ratioP1;P2;durP2;ratioP2
10056;SDS011;5068;51.286;7.518;2023-07-13T00:00:46;1.83;;;1.33;;
10056;SDS011;5068;51.286;7.518;2023-07-13T00:02:20;2.92;;;1.45;;
10056;SDS011;5068;51.286;7.518;2023-07-13T00:03:52;3.22;;;1.10;;
10056;SDS011;5068;51.286;7.518;2023-07-13T00:05:25;1.60;;;1.20;;
10056;SDS011;5068;51.286;7.518;2023-07-13T00:06:58;2.08;;;1.02;;
10056;SDS011;5068;51.286;7.518;2023-07-13T00:08:32;2.67;;;1.40;;
10056;SDS011;5068;51.286;7.518;2023-07-13T00:10:05;2.28;;;1.40;;
10056;SDS011;5068;51.286;7.518;2023-07-13T00:11:41;1.83;;;1.08;;
10056;SDS011;5068;51.286;7.518;2023-07-13T00:13:15;1.98;;;1.23;;
10056;SDS011;5068;51.286;7.518;2023-07-13T00:14:48;3.10;;;1.38;;
10056;SDS011;5068;51.286;7.518;2023-07-13T00:16:21;1.60;;;1.30;;
10056;SDS011;5068;51.286;7.518;2023-07-13T00:17:54;2.15;;;1.08;;
10056;SDS011;5068;51.286;7.518;2023-07-13T00:19:28;1.75;;;1.13;;
10056;SDS011;5068;51.286;7.518;2023-07-13T00:21:00;1.58;;;0.90;;
10056;SDS011;5068;51.286;7.518;2023-07-13T00:22:37;1.42;;;1.08;;
10056;SDS011;5068;51.286;7.518;2023-07-13T00:24:11;2.33;;;1.15;;
10056;SDS011;5068;51.286;7.518;2023-07-13T00:25:48;4.80;;;1.02;;
10056;SDS011;5068;51.286;7.518;2023-07-13T00:27:22;3.47;;;1.38;;
10056;SDS011;5068;51.286;7.518;2023-07-13T00:28:59;1.83;;;1.10;;
10056;SDS011;5068;51.286;7.518;2023-07-13T00:30:33;3.28;;;0.98;;
10056;SDS011;5068;51.286;7.518;2023-07-13T00:32:07;1.42;;;0.93;;
10056;SDS011;5068;51.286;7.518;2023-07-13T00:33:40;1.75;;;1.00;;
10056;SDS011;5068;51.286;7.518;2023-07-13T00:35:14;1.98;;;0.98;;
10056;SDS011;5068;51.286;7.518;2023-07-13T00:36:47;2.75;;;1.00;;
10056;SDS011;5068;51.286;7.518;2023-07-13T00:38:20;3.25;;;1.00;;
10056;SDS011;5068;51.286;7.518;2023-07-13T00:39:53;1.65;;;1.02;;
10056;SDS011;5068;51.286;7.518;2023-07-13T00:41:26;2.40;;;1.13;;
10056;SDS011;5068;51.286;7.518;2023-07-13T00:42:58;2.40;;;1.02;;
10056;SDS011;5068;51.286;7.518;2023-07-13T00:44:34;5.57;;;1.20;;
10056;SDS011;5068;51.286;7.518;2023-07-13T00:47:47;1.40;;;0.73;;
10056;SDS011;5068;51.286;7.518;2023-07-13T00:49:22;2.00;;;0.90;;
10056;SDS011;5068;51.286;7.518;2023-07-13T00:50:58;2.38;;;1.02;;
10056;SDS011;5068;51.286;7.518;2023-07-13T00:52:33;1.75;;;0.90;;
10056;SDS011;5068;51.286;7.518;2023-07-13T00:54:13;2.13;;;1.17;;
10056;SDS011;5068;51.286;7.518;2023-07-13T00:55:51;1.48;;;0.80;;
10056;SDS011;5068;51.286;7.518;2023-07-13T00:57:27;1.25;;;0.80;;
10056;SDS011;5068;51.286;7.518;2023-07-13T00:59:01;1.20;;;0.80;;
10056;SDS011;5068;51.286;7.518;2023-07-13T01:00:39;2.72;;;0.90;;
10056;SDS011;5068;51.286;7.518;2023-07-13T01:02:12;1.17;;;0.70;;
10056;SDS011;5068;51.286;7.518;2023-07-13T01:03:46;2.28;;;1.15;;
10056;SDS011;5068;51.286;7.518;2023-07-13T01:05:19;1.75;;;0.85;;
10056;SDS011;5068;51.286;7.518;2023-07-13T01:06:54;1.92;;;0.90;;
10056;SDS011;5068;51.286;7.518;2023-07-13T01:08:29;1.65;;;0.80;;
10056;SDS011;5068;51.286;7.518;2023-07-13T01:10:05;1.83;;;0.75;;
10056;SDS011;5068;51.286;7.518;2023-07-13T01:11:40;1.60;;;0.90;;
10056;SDS011;5068;51.286;7.518;2023-07-13T01:13:12;3.00;;;0.80;;
10056;SDS011;5068;51.286;7.518;2023-07-13T01:14:45;3.03;;;0.93;;
10056;SDS011;5068;51.286;7.518;2023-07-13T01:16:22;3.20;;;0.90;;
10056;SDS011;5068;51.286;7.518;2023-07-13T01:17:58;1.65;;;0.90;;
10056;SDS011;5068;51.286;7.518;2023-07-13T01:19:33;1.65;;;0.68;;
10056;SDS011;5068;51.286;7.518;2023-07-13T01:21:12;1.85;;;0.70;;
10056;SDS011;5068;51.286;7.518;2023-07-13T01:22:44;1.48;;;0.68;;
10056;SDS011;5068;51.286;7.518;2023-07-13T01:24:17;1.73;;;0.75;;
10056;SDS011;5068;51.286;7.518;2023-07-13T01:25:51;2.90;;;0.80;;
10056;SDS011;5068;51.286;7.518;2023-07-13T01:27:26;2.03;;;0.80;;
10056;SDS011;5068;51.286;7.518;2023-07-13T01:28:59;2.25;;;0.93;;
10056;SDS011;5068;51.286;7.518;2023-07-13T01:30:32;2.58;;;1.00;;
10056;SDS011;5068;51.286;7.518;2023-07-13T01:32:07;2.08;;;0.60;;
10056;SDS011;5068;51.286;7.518;2023-07-13T01:33:42;1.25;;;0.60;;
10056;SDS011;5068;51.286;7.518;2023-07-13T01:35:14;2.42;;;0.57;;
10056;SDS011;5068;51.286;7.518;2023-07-13T01:36:49;2.20;;;0.93;;
10056;SDS011;5068;51.286;7.518;2023-07-13T01:38:25;2.58;;;0.70;;
10056;SDS011;5068;51.286;7.518;2023-07-13T01:39:59;2.55;;;0.80;;
10056;SDS011;5068;51.286;7.518;2023-07-13T01:41:31;1.40;;;0.88;;
10056;SDS011;5068;51.286;7.518;2023-07-13T01:43:05;1.70;;;0.70;;
10056;SDS011;5068;51.286;7.518;2023-07-13T01:44:37;1.92;;;0.80;;
10056;SDS011;5068;51.286;7.518;2023-07-13T01:46:11;3.13;;;0.75;;
10056;SDS011;5068;51.286;7.518;2023-07-13T01:47:54;2.83;;;0.90;;
10056;SDS011;5068;51.286;7.518;2023-07-13T01:49:26;1.38;;;0.60;;
10056;SDS011;5068;51.286;7.518;2023-07-13T01:51:00;1.85;;;0.88;;
10056;SDS011;5068;51.286;7.518;2023-07-13T01:52:33;2.17;;;0.70;;
10056;SDS011;5068;51.286;7.518;2023-07-13T01:54:06;2.72;;;1.23;;
10056;SDS011;5068;51.286;7.518;2023-07-13T01:55:39;1.70;;;0.70;;
10056;SDS011;5068;51.286;7.518;2023-07-13T01:57:12;1.92;;;0.70;;
10056;SDS011;5068;51.286;7.518;2023-07-13T01:58:44;3.05;;;0.88;;
10056;SDS011;5068;51.286;7.518;2023-07-13T02:00:18;1.75;;;0.60;;
10056;SDS011;5068;51.286;7.518;2023-07-13T02:01:53;2.38;;;0.60;;
10056;SDS011;5068;51.286;7.518;2023-07-13T02:03:26;1.50;;;0.90;;
10056;SDS011;5068;51.286;7.518;2023-07-13T02:05:01;3.72;;;0.80;;
10056;SDS011;5068;51.286;7.518;2023-07-13T02:06:34;1.92;;;1.00;;
10056;SDS011;5068;51.286;7.518;2023-07-13T02:08:08;2.00;;;0.77;;
10056;SDS011;5068;51.286;7.518;2023-07-13T02:09:41;1.83;;;0.70;;
10056;SDS011;5068;51.286;7.518;2023-07-13T02:11:13;2.15;;;0.75;;
10056;SDS011;5068;51.286;7.518;2023-07-13T02:12:47;1.88;;;0.70;;
10056;SDS011;5068;51.286;7.518;2023-07-13T02:14:20;1.63;;;0.90;;
10056;SDS011;5068;51.286;7.518;2023-07-13T02:15:54;1.35;;;0.70;;
10056;SDS011;5068;51.286;7.518;2023-07-13T02:17:26;2.20;;;0.73;;
10056;SDS011;5068;51.286;7.518;2023-07-13T02:19:00;2.72;;;1.10;;
10056;SDS011;5068;51.286;7.518;2023-07-13T02:20:32;1.13;;;0.63;;
10056;SDS011;5068;51.286;7.518;2023-07-13T02:22:06;1.27;;;0.70;;
10056;SDS011;5068;51.286;7.518;2023-07-13T02:23:39;1.95;;;0.70;;
10056;SDS011;5068;51.286;7.518;2023-07-13T02:25:12;1.42;;;0.70;;
10056;SDS011;5068;51.286;7.518;2023-07-13T02:26:45;1.77;;;0.90;;
10056;SDS011;5068;51.286;7.518;2023-07-13T02:28:19;3.03;;;0.80;;
10056;SDS011;5068;51.286;7.518;2023-07-13T02:29:53;1.85;;;0.70;;
10056;SDS011;5068;51.286;7.518;2023-07-13T02:31:26;2.00;;;0.60;;
10056;SDS011;5068;51.286;7.518;2023-07-13T02:32:59;2.42;;;1.00;;
10056;SDS011;5068;51.286;7.518;2023-07-13T02:34:31;1.40;;;0.60;;
10056;SDS011;5068;51.286;7.518;2023-07-13T02:36:05;1.30;;;0.60;;
10056;SDS011;5068;51.286;7.518;2023-07-13T02:37:38;1.65;;;0.80;;
10056;SDS011;5068;51.286;7.518;2023-07-13T02:39:13;3.13;;;1.13;;
10056;SDS011;5068;51.286;7.518;2023-07-13T02:40:47;1.17;;;0.60;;
10056;SDS011;5068;51.286;7.518;2023-07-13T02:42:19;2.78;;;1.00;;
10056;SDS011;5068;51.286;7.518;2023-07-13T02:43:52;2.78;;;1.00;;
10056;SDS011;5068;51.286;7.518;2023-07-13T02:45:24;2.83;;;0.70;;
10056;SDS011;5068;51.286;7.518;2023-07-13T02:46:57;2.85;;;0.80;;
10056;SDS011;5068;51.286;7.518;2023-07-13T02:48:30;1.75;;;0.60;;
10056;SDS011;5068;51.286;7.518;2023-07-13T02:50:05;1.42;;;0.60;;
10056;SDS011;5068;51.286;7.518;2023-07-13T02:51:45;2.15;;;0.70;;
10056;SDS011;5068;51.286;7.518;2023-07-13T02:53:18;3.30;;;0.98;;
10056;SDS011;5068;51.286;7.518;2023-07-13T02:54:53;1.85;;;0.70;;
10056;SDS011;5068;51.286;7.518;2023-07-13T02:56:26;2.35;;;0.70;;
10056;SDS011;5068;51.286;7.518;2023-07-13T02:58:02;1.63;;;0.60;;
10056;SDS011;5068;51.286;7.518;2023-07-13T02:59:35;2.90;;;0.93;;
10056;SDS011;5068;51.286;7.518;2023-07-13T03:01:09;1.13;;;0.70;;
10056;SDS011;5068;51.286;7.518;2023-07-13T03:02:44;1.55;;;0.95;;
10056;SDS011;5068;51.286;7.518;2023-07-13T03:04:17;2.75;;;0.80;;
10056;SDS011;5068;51.286;7.518;2023-07-13T03:05:57;1.70;;;0.65;;
10056;SDS011;5068;51.286;7.518;2023-07-13T03:07:38;2.60;;;0.50;;
10056;SDS011;5068;51.286;7.518;2023-07-13T03:10:50;1.15;;;0.60;;
10056;SDS011;5068;51.286;7.518;2023-07-13T03:12:35;1.98;;;0.77;;
10056;SDS011;5068;51.286;7.518;2023-07-13T03:14:11;1.83;;;0.65;;
10056;SDS011;5068;51.286;7.518;2023-07-13T03:15:48;2.05;;;0.70;;
10056;SDS011;5068;51.286;7.518;2023-07-13T03:17:21;1.20;;;0.75;;
10056;SDS011;5068;51.286;7.518;2023-07-13T03:18:53;1.27;;;0.70;;
10056;SDS011;5068;51.286;7.518;2023-07-13T03:20:27;3.22;;;0.85;;
10056;SDS011;5068;51.286;7.518;2023-07-13T03:21:59;1.33;;;0.70;;
10056;SDS011;5068;51.286;7.518;2023-07-13T03:23:33;3.20;;;0.70;;
10056;SDS011;5068;51.286;7.518;2023-07-13T03:25:06;1.50;;;0.70;;
10056;SDS011;5068;51.286;7.518;2023-07-13T03:26:41;1.80;;;0.77;;
10056;SDS011;5068;51.286;7.518;2023-07-13T03:28:14;1.77;;;0.68;;
10056;SDS011;5068;51.286;7.518;2023-07-13T03:29:48;1.10;;;0.50;;
10056;SDS011;5068;51.286;7.518;2023-07-13T03:31:26;1.70;;;0.80;;
10056;SDS011;5068;51.286;7.518;2023-07-13T03:33:06;2.65;;;0.70;;
10056;SDS011;5068;51.286;7.518;2023-07-13T03:34:39;1.35;;;0.60;;
10056;SDS011;5068;51.286;7.518;2023-07-13T03:36:14;2.67;;;0.70;;
10056;SDS011;5068;51.286;7.518;2023-07-13T03:37:52;1.75;;;0.77;;
10056;SDS011;5068;51.286;7.518;2023-07-13T03:39:24;1.45;;;0.60;;
10056;SDS011;5068;51.286;7.518;2023-07-13T03:40:59;1.35;;;0.60;;
10056;SDS011;5068;51.286;7.518;2023-07-13T03:42:34;1.63;;;0.90;;
10056;SDS011;5068;51.286;7.518;2023-07-13T03:44:07;1.98;;;0.57;;
10056;SDS011;5068;51.286;7.518;2023-07-13T03:45:40;3.08;;;0.63;;
10056;SDS011;5068;51.286;7.518;2023-07-13T03:47:13;1.35;;;0.82;;
10056;SDS011;5068;51.286;7.518;2023-07-13T03:48:46;1.95;;;0.77;;
10056;SDS011;5068;51.286;7.518;2023-07-13T03:50:21;2.65;;;0.80;;
10056;SDS011;5068;51.286;7.518;2023-07-13T03:51:53;0.90;;;0.45;;
10056;SDS011;5068;51.286;7.518;2023-07-13T03:53:26;1.17;;;0.65;;
10056;SDS011;5068;51.286;7.518;2023-07-13T03:54:59;1.30;;;0.75;;
10056;SDS011;5068;51.286;7.518;2023-07-13T03:56:32;1.48;;;0.60;;
10056;SDS011;5068;51.286;7.518;2023-07-13T04:00:09;1.60;;;0.60;;
10056;SDS011;5068;51.286;7.518;2023-07-13T04:01:48;1.42;;;0.77;;
10056;SDS011;5068;51.286;7.518;2023-07-13T04:03:22;1.58;;;0.70;;
10056;SDS011;5068;51.286;7.518;2023-07-13T04:04:56;1.27;;;0.70;;
10056;SDS011;5068;51.286;7.518;2023-07-13T04:06:30;3.00;;;0.90;;
10056;SDS011;5068;51.286;7.518;2023-07-13T04:08:03;1.20;;;0.60;;
10056;SDS011;5068;51.286;7.518;2023-07-13T04:09:37;1.88;;;0.80;;
10056;SDS011;5068;51.286;7.518;2023-07-13T04:11:11;1.52;;;0.80;;
10056;SDS011;5068;51.286;7.518;2023-07-13T04:12:43;1.17;;;0.70;;
10056;SDS011;5068;51.286;7.518;2023-07-13T04:14:17;1.77;;;0.70;;
10056;SDS011;5068;51.286;7.518;2023-07-13T04:15:51;1.55;;;0.70;;
10056;SDS011;5068;51.286;7.518;2023-07-13T04:17:25;3.35;;;1.08;;
10056;SDS011;5068;51.286;7.518;2023-07-13T04:18:57;1.58;;;0.80;;
10056;SDS011;5068;51.286;7.518;2023-07-13T04:22:04;1.55;;;0.50;;
10056;SDS011;5068;51.286;7.518;2023-07-13T04:23:38;2.13;;;1.00;;
10056;SDS011;5068;51.286;7.518;2023-07-13T04:25:11;2.20;;;0.60;;
10056;SDS011;5068;51.286;7.518;2023-07-13T04:26:44;1.45;;;0.70;;
10056;SDS011;5068;51.286;7.518;2023-07-13T04:28:16;2.22;;;0.80;;
10056;SDS011;5068;51.286;7.518;2023-07-13T04:29:51;1.95;;;0.70;;
10056;SDS011;5068;51.286;7.518;2023-07-13T04:31:24;2.20;;;0.93;;
10056;SDS011;5068;51.286;7.518;2023-07-13T04:32:56;1.85;;;0.73;;
10056;SDS011;5068;51.286;7.518;2023-07-13T04:34:29;2.40;;;0.80;;
10056;SDS011;5068;51.286;7.518;2023-07-13T04:36:03;2.65;;;0.80;;
10056;SDS011;5068;51.286;7.518;2023-07-13T04:37:41;3.90;;;0.55;;
10056;SDS011;5068;51.286;7.518;2023-07-13T04:39:14;1.65;;;0.65;;
10056;SDS011;5068;51.286;7.518;2023-07-13T04:40:46;1.92;;;0.65;;
10056;SDS011;5068;51.286;7.518;2023-07-13T04:42:20;1.85;;;0.50;;
10056;SDS011;5068;51.286;7.518;2023-07-13T04:43:53;1.70;;;0.80;;
10056;SDS011;5068;51.286;7.518;2023-07-13T04:45:29;1.17;;;0.85;;
10056;SDS011;5068;51.286;7.518;2023-07-13T04:47:03;2.22;;;0.65;;
10056;SDS011;5068;51.286;7.518;2023-07-13T04:48:36;1.52;;;0.82;;
10056;SDS011;5068;51.286;7.518;2023-07-13T04:50:12;1.45;;;0.70;;
10056;SDS011;5068;51.286;7.518;2023-07-13T04:51:49;2.47;;;0.70;;
10056;SDS011;5068;51.286;7.518;2023-07-13T04:53:23;2.13;;;0.80;;
10056;SDS011;5068;51.286;7.518;2023-07-13T04:54:56;1.48;;;0.60;;
10056;SDS011;5068;51.286;7.518;2023-07-13T04:56:30;1.27;;;0.80;;
10056;SDS011;5068;51.286;7.518;2023-07-13T04:58:02;1.95;;;0.95;;
10056;SDS011;5068;51.286;7.518;2023-07-13T04:59:36;1.33;;;0.70;;
10056;SDS011;5068;51.286;7.518;2023-07-13T05:01:10;2.33;;;1.02;;
10056;SDS011;5068;51.286;7.518;2023-07-13T05:02:44;3.05;;;0.90;;
10056;SDS011;5068;51.286;7.518;2023-07-13T05:04:17;2.03;;;0.80;;
10056;SDS011;5068;51.286;7.518;2023-07-13T05:05:57;1.75;;;0.75;;
10056;SDS011;5068;51.286;7.518;2023-07-13T05:09:05;1.70;;;0.63;;
10056;SDS011;5068;51.286;7.518;2023-07-13T05:10:38;1.63;;;0.70;;
10056;SDS011;5068;51.286;7.518;2023-07-13T05:12:11;3.40;;;0.90;;
10056;SDS011;5068;51.286;7.518;2023-07-13T05:13:44;1.10;;;0.70;;
10056;SDS011;5068;51.286;7.518;2023-07-13T05:15:17;1.45;;;0.80;;
10056;SDS011;5068;51.286;7.518;2023-07-13T05:16:53;4.20;;;1.10;;
10056;SDS011;5068;51.286;7.518;2023-07-13T05:18:28;3.22;;;0.90;;
10056;SDS011;5068;51.286;7.518;2023-07-13T05:20:03;1.58;;;0.60;;
10056;SDS011;5068;51.286;7.518;2023-07-13T05:21:37;2.22;;;1.25;;
10056;SDS011;5068;51.286;7.518;2023-07-13T05:23:09;3.03;;;1.00;;
10056;SDS011;5068;51.286;7.518;2023-07-13T05:24:42;4.55;;;0.90;;
10056;SDS011;5068;51.286;7.518;2023-07-13T05:26:14;7.13;;;1.60;;
10056;SDS011;5068;51.286;7.518;2023-07-13T05:27:48;2.17;;;0.68;;
10056;SDS011;5068;51.286;7.518;2023-07-13T05:29:20;4.30;;;1.27;;
10056;SDS011;5068;51.286;7.518;2023-07-13T05:30:54;2.42;;;1.10;;
10056;SDS011;5068;51.286;7.518;2023-07-13T05:32:28;3.55;;;1.13;;
10056;SDS011;5068;51.286;7.518;2023-07-13T05:34:01;4.40;;;1.10;;
10056;SDS011;5068;51.286;7.518;2023-07-13T05:35:34;2.83;;;0.80;;
10056;SDS011;5068;51.286;7.518;2023-07-13T05:37:07;2.60;;;0.90;;
10056;SDS011;5068;51.286;7.518;2023-07-13T05:38:41;1.83;;;0.80;;
10056;SDS011;5068;51.286;7.518;2023-07-13T05:40:14;2.88;;;1.00;;
10056;SDS011;5068;51.286;7.518;2023-07-13T05:41:47;2.20;;;0.90;;
10056;SDS011;5068;51.286;7.518;2023-07-13T05:43:19;3.08;;;0.98;;
10056;SDS011;5068;51.286;7.518;2023-07-13T05:44:52;1.85;;;0.95;;
10056;SDS011;5068;51.286;7.518;2023-07-13T05:46:25;3.63;;;1.00;;
10056;SDS011;5068;51.286;7.518;2023-07-13T05:47:59;3.10;;;0.93;;
10056;SDS011;5068;51.286;7.518;2023-07-13T05:49:32;6.43;;;1.80;;
10056;SDS011;5068;51.286;7.518;2023-07-13T05:51:05;4.35;;;1.00;;
10056;SDS011;5068;51.286;7.518;2023-07-13T05:52:38;4.88;;;1.20;;
10056;SDS011;5068;51.286;7.518;2023-07-13T05:54:10;2.85;;;1.00;;
10056;SDS011;5068;51.286;7.518;2023-07-13T05:55:44;2.30;;;1.10;;
10056;SDS011;5068;51.286;7.518;2023-07-13T05:57:21;2.10;;;1.27;;
10056;SDS011;5068;51.286;7.518;2023-07-13T05:58:54;5.78;;;1.38;;
10056;SDS011;5068;51.286;7.518;2023-07-13T06:00:28;2.10;;;1.00;;
10056;SDS011;5068;51.286;7.518;2023-07-13T06:02:01;4.35;;;1.23;;
10056;SDS011;5068;51.286;7.518;2023-07-13T06:03:35;3.38;;;1.15;;
10056;SDS011;5068;51.286;7.518;2023-07-13T06:05:09;2.80;;;1.10;;
10056;SDS011;5068;51.286;7.518;2023-07-13T06:06:42;4.13;;;1.17;;
10056;SDS011;5068;51.286;7.518;2023-07-13T06:08:14;5.28;;;1.48;;
10056;SDS011;5068;51.286;7.518;2023-07-13T06:09:47;4.68;;;1.60;;
10056;SDS011;5068;51.286;7.518;2023-07-13T06:11:21;4.70;;;1.20;;
10056;SDS011;5068;51.286;7.518;2023-07-13T06:12:58;4.15;;;1.45;;
10056;SDS011;5068;51.286;7.518;2023-07-13T06:14:31;3.47;;;1.30;;
10056;SDS011;5068;51.286;7.518;2023-07-13T06:16:04;4.35;;;1.40;;
10056;SDS011;5068;51.286;7.518;2023-07-13T06:17:38;3.35;;;1.20;;
10056;SDS011;5068;51.286;7.518;2023-07-13T06:19:13;5.07;;;1.58;;
10056;SDS011;5068;51.286;7.518;2023-07-13T06:20:46;3.80;;;1.45;;
10056;SDS011;5068;51.286;7.518;2023-07-13T06:22:18;3.03;;;1.40;;
10056;SDS011;5068;51.286;7.518;2023-07-13T06:23:51;3.15;;;1.50;;
10056;SDS011;5068;51.286;7.518;2023-07-13T06:25:24;3.00;;;1.42;;
10056;SDS011;5068;51.286;7.518;2023-07-13T06:26:59;2.95;;;1.20;;
10056;SDS011;5068;51.286;7.518;2023-07-13T06:28:32;4.47;;;2.10;;
10056;SDS011;5068;51.286;7.518;2023-07-13T06:30:06;6.78;;;1.70;;
10056;SDS011;5068;51.286;7.518;2023-07-13T06:31:41;4.88;;;1.30;;
10056;SDS011;5068;51.286;7.518;2023-07-13T06:33:14;4.72;;;1.38;;
10056;SDS011;5068;51.286;7.518;2023-07-13T06:34:48;3.58;;;1.20;;
10056;SDS011;5068;51.286;7.518;2023-07-13T06:36:23;3.33;;;1.67;;
10056;SDS011;5068;51.286;7.518;2023-07-13T06:37:55;6.32;;;1.60;;
10056;SDS011;5068;51.286;7.518;2023-07-13T06:39:29;4.57;;;1.35;;
10056;SDS011;5068;51.286;7.518;2023-07-13T06:41:02;2.80;;;1.27;;
10056;SDS011;5068;51.286;7.518;2023-07-13T06:44:09;3.80;;;1.48;;
10056;SDS011;5068;51.286;7.518;2023-07-13T06:45:44;3.30;;;1.33;;
10056;SDS011;5068;51.286;7.518;2023-07-13T06:47:20;3.92;;;1.25;;
10056;SDS011;5068;51.286;7.518;2023-07-13T06:48:53;2.60;;;1.45;;
10056;SDS011;5068;51.286;7.518;2023-07-13T06:50:26;4.00;;;1.30;;
10056;SDS011;5068;51.286;7.518;2023-07-13T06:52:00;4.80;;;1.30;;
10056;SDS011;5068;51.286;7.518;2023-07-13T06:53:34;4.18;;;1.45;;
10056;SDS011;5068;51.286;7.518;2023-07-13T06:55:06;6.38;;;1.90;;
10056;SDS011;5068;51.286;7.518;2023-07-13T06:56:40;3.38;;;1.17;;
10056;SDS011;5068;51.286;7.518;2023-07-13T06:58:14;4.38;;;1.40;;
10056;SDS011;5068;51.286;7.518;2023-07-13T06:59:49;4.22;;;1.30;;
10056;SDS011;5068;51.286;7.518;2023-07-13T07:01:22;4.88;;;1.38;;
10056;SDS011;5068;51.286;7.518;2023-07-13T07:02:56;4.80;;;1.23;;
10056;SDS011;5068;51.286;7.518;2023-07-13T07:04:28;4.28;;;1.60;;
10056;SDS011;5068;51.286;7.518;2023-07-13T07:06:05;3.95;;;1.73;;
10056;SDS011;5068;51.286;7.518;2023-07-13T07:07:46;7.03;;;1.85;;
10056;SDS011;5068;51.286;7.518;2023-07-13T07:09:19;2.75;;;1.38;;
10056;SDS011;5068;51.286;7.518;2023-07-13T07:10:52;5.57;;;1.83;;
10056;SDS011;5068;51.286;7.518;2023-07-13T07:12:25;3.13;;;1.35;;
10056;SDS011;5068;51.286;7.518;2023-07-13T07:13:59;3.58;;;1.40;;
10056;SDS011;5068;51.286;7.518;2023-07-13T07:15:31;3.17;;;1.63;;
10056;SDS011;5068;51.286;7.518;2023-07-13T07:17:04;3.90;;;1.60;;
10056;SDS011;5068;51.286;7.518;2023-07-13T07:18:36;3.35;;;1.52;;
10056;SDS011;5068;51.286;7.518;2023-07-13T07:20:10;4.05;;;1.88;;
10056;SDS011;5068;51.286;7.518;2023-07-13T07:21:45;4.60;;;1.80;;
10056;SDS011;5068;51.286;7.518;2023-07-13T07:23:18;6.45;;;2.20;;
10056;SDS011;5068;51.286;7.518;2023-07-13T07:24:50;4.32;;;1.63;;
10056;SDS011;5068;51.286;7.518;2023-07-13T07:26:23;3.58;;;1.48;;
10056;SDS011;5068;51.286;7.518;2023-07-13T07:28:00;5.53;;;1.85;;
10056;SDS011;5068;51.286;7.518;2023-07-13T07:29:35;4.57;;;1.80;;
10056;SDS011;5068;51.286;7.518;2023-07-13T07:31:21;3.92;;;1.50;;
10056;SDS011;5068;51.286;7.518;2023-07-13T07:32:56;4.15;;;1.63;;
10056;SDS011;5068;51.286;7.518;2023-07-13T07:34:31;4.50;;;1.48;;
10056;SDS011;5068;51.286;7.518;2023-07-13T07:36:03;3.25;;;1.70;;
10056;SDS011;5068;51.286;7.518;2023-07-13T07:37:41;4.88;;;1.80;;
10056;SDS011;5068;51.286;7.518;2023-07-13T07:39:17;4.38;;;1.63;;
10056;SDS011;5068;51.286;7.518;2023-07-13T07:40:49;4.07;;;1.90;;
10056;SDS011;5068;51.286;7.518;2023-07-13T07:42:26;5.20;;;1.90;;
10056;SDS011;5068;51.286;7.518;2023-07-13T07:43:58;3.35;;;1.90;;
10056;SDS011;5068;51.286;7.518;2023-07-13T07:45:32;4.47;;;2.13;;
10056;SDS011;5068;51.286;7.518;2023-07-13T07:47:04;4.88;;;2.22;;
10056;SDS011;5068;51.286;7.518;2023-07-13T07:48:38;6.50;;;2.35;;
10056;SDS011;5068;51.286;7.518;2023-07-13T07:50:11;5.40;;;2.30;;
10056;SDS011;5068;51.286;7.518;2023-07-13T07:51:43;4.28;;;1.77;;
10056;SDS011;5068;51.286;7.518;2023-07-13T07:53:18;3.47;;;1.80;;
10056;SDS011;5068;51.286;7.518;2023-07-13T07:56:26;2.53;;;1.40;;
10056;SDS011;5068;51.286;7.518;2023-07-13T07:58:02;5.47;;;2.05;;
10056;SDS011;5068;51.286;7.518;2023-07-13T07:59:56;2.95;;;1.70;;
10056;SDS011;5068;51.286;7.518;2023-07-13T08:01:33;2.47;;;1.60;;
10056;SDS011;5068;51.286;7.518;2023-07-13T08:03:08;3.25;;;1.85;;
10056;SDS011;5068;51.286;7.518;2023-07-13T08:04:44;4.95;;;1.90;;
10056;SDS011;5068;51.286;7.518;2023-07-13T08:06:19;2.50;;;1.60;;
10056;SDS011;5068;51.286;7.518;2023-07-13T08:08:05;3.48;;;2.09;;
10056;SDS011;5068;51.286;7.518;2023-07-13T08:09:44;5.34;;;1.48;;
10056;SDS011;5068;51.286;7.518;2023-07-13T08:11:18;5.20;;;1.92;;
10056;SDS011;5068;51.286;7.518;2023-07-13T08:12:55;4.18;;;2.25;;
10056;SDS011;5068;51.286;7.518;2023-07-13T08:14:30;3.45;;;1.90;;
10056;SDS011;5068;51.286;7.518;2023-07-13T08:16:23;3.78;;;1.55;;
10056;SDS011;5068;51.286;7.518;2023-07-13T08:17:56;3.95;;;1.35;;
10056;SDS011;5068;51.286;7.518;2023-07-13T08:19:30;3.03;;;1.70;;
10056;SDS011;5068;51.286;7.518;2023-07-13T08:21:03;5.00;;;2.08;;
10056;SDS011;5068;51.286;7.518;2023-07-13T08:22:37;3.20;;;1.77;;
10056;SDS011;5068;51.286;7.518;2023-07-13T08:24:10;4.57;;;1.83;;
10056;SDS011;5068;51.286;7.518;2023-07-13T08:25:51;3.75;;;2.00;;
10056;SDS011;5068;51.286;7.518;2023-07-13T08:27:26;4.65;;;2.05;;
10056;SDS011;5068;51.286;7.518;2023-07-13T08:29:01;3.05;;;1.92;;
10056;SDS011;5068;51.286;7.518;2023-07-13T08:30:34;4.32;;;2.30;;
10056;SDS011;5068;51.286;7.518;2023-07-13T08:32:08;4.53;;;2.80;;
10056;SDS011;5068;51.286;7.518;2023-07-13T08:33:42;4.35;;;2.17;;
10056;SDS011;5068;51.286;7.518;2023-07-13T08:35:14;5.88;;;2.75;;
10056;SDS011;5068;51.286;7.518;2023-07-13T08:36:48;3.20;;;2.60;;
10056;SDS011;5068;51.286;7.518;2023-07-13T08:38:20;3.72;;;2.22;;
10056;SDS011;5068;51.286;7.518;2023-07-13T08:39:53;3.35;;;2.20;;
10056;SDS011;5068;51.286;7.518;2023-07-13T08:41:27;4.07;;;2.13;;
10056;SDS011;5068;51.286;7.518;2023-07-13T08:43:01;4.50;;;2.22;;
10056;SDS011;5068;51.286;7.518;2023-07-13T08:44:36;3.72;;;1.85;;
10056;SDS011;5068;51.286;7.518;2023-07-13T08:46:21;3.15;;;2.00;;
10056;SDS011;5068;51.286;7.518;2023-07-13T08:48:02;2.30;;;1.42;;
10056;SDS011;5068;51.286;7.518;2023-07-13T08:49:41;2.63;;;2.15;;
10056;SDS011;5068;51.286;7.518;2023-07-13T08:51:21;4.65;;;2.40;;
10056;SDS011;5068;51.286;7.518;2023-07-13T08:53:02;4.47;;;2.67;;
10056;SDS011;5068;51.286;7.518;2023-07-13T08:56:17;2.92;;;2.70;;
10056;SDS011;5068;51.286;7.518;2023-07-13T08:57:56;5.45;;;2.80;;
10056;SDS011;5068;51.286;7.518;2023-07-13T08:59:35;4.40;;;2.63;;
10056;SDS011;5068;51.286;7.518;2023-07-13T09:01:10;3.67;;;2.85;;
10056;SDS011;5068;51.286;7.518;2023-07-13T09:02:52;3.60;;;2.80;;
10056;SDS011;5068;51.286;7.518;2023-07-13T09:04:29;5.10;;;3.00;;
10056;SDS011;5068;51.286;7.518;2023-07-13T09:06:09;4.10;;;2.47;;
10056;SDS011;5068;51.286;7.518;2023-07-13T09:07:50;5.85;;;2.58;;
10056;SDS011;5068;51.286;7.518;2023-07-13T09:09:52;5.70;;;2.63;;
10056;SDS011;5068;51.286;7.518;2023-07-13T09:11:45;5.53;;;2.55;;
10056;SDS011;5068;51.286;7.518;2023-07-13T09:13:31;3.50;;;2.50;;
10056;SDS011;5068;51.286;7.518;2023-07-13T09:17:10;5.57;;;2.72;;
10056;SDS011;5068;51.286;7.518;2023-07-13T09:18:48;4.47;;;2.53;;
10056;SDS011;5068;51.286;7.518;2023-07-13T09:20:28;4.55;;;2.85;;
10056;SDS011;5068;51.286;7.518;2023-07-13T09:23:47;4.97;;;2.58;;
10056;SDS011;5068;51.286;7.518;2023-07-13T09:25:29;4.93;;;2.70;;
10056;SDS011;5068;51.286;7.518;2023-07-13T09:27:09;4.47;;;2.65;;
10056;SDS011;5068;51.286;7.518;2023-07-13T09:28:51;2.88;;;2.55;;
10056;SDS011;5068;51.286;7.518;2023-07-13T09:30:33;5.47;;;3.63;;
10056;SDS011;5068;51.286;7.518;2023-07-13T09:33:48;5.18;;;3.55;;
10056;SDS011;5068;51.286;7.518;2023-07-13T09:35:24;4.30;;;3.90;;
10056;SDS011;5068;51.286;7.518;2023-07-13T09:37:00;5.03;;;4.00;;
10056;SDS011;5068;51.286;7.518;2023-07-13T09:38:34;4.40;;;3.97;;
10056;SDS011;5068;51.286;7.518;2023-07-13T09:40:09;7.30;;;4.13;;
10056;SDS011;5068;51.286;7.518;2023-07-13T09:41:50;3.83;;;3.33;;
10056;SDS011;5068;51.286;7.518;2023-07-13T09:43:32;4.50;;;3.80;;
10056;SDS011;5068;51.286;7.518;2023-07-13T09:45:06;4.47;;;3.67;;
10056;SDS011;5068;51.286;7.518;2023-07-13T09:46:43;4.18;;;3.20;;
10056;SDS011;5068;51.286;7.518;2023-07-13T09:48:18;3.25;;;2.38;;
10056;SDS011;5068;51.286;7.518;2023-07-13T09:49:55;3.83;;;2.95;;
10056;SDS011;5068;51.286;7.518;2023-07-13T09:51:34;4.53;;;3.10;;
10056;SDS011;5068;51.286;7.518;2023-07-13T09:53:11;3.70;;;2.83;;
10056;SDS011;5068;51.286;7.518;2023-07-13T09:54:48;4.07;;;3.00;;
10056;SDS011;5068;51.286;7.518;2023-07-13T09:56:27;4.22;;;2.88;;
10056;SDS011;5068;51.286;7.518;2023-07-13T09:58:04;3.95;;;2.25;;